createdAt,value
2018-05-24T00:00:04.000Z,33
2018-05-24T00:02:04.000Z,32
2018-05-24T00:03:04.000Z,33
2018-05-24T00:04:04.000Z,33
2018-05-24T00:05:04.000Z,32
2018-05-24T00:06:04.000Z,32
2018-05-24T00:08:04.000Z,32
2018-05-24T00:09:04.000Z,33
2018-05-24T00:11:04.000Z,32
2018-05-24T00:12:04.000Z,32
2018-05-24T00:13:04.000Z,32
2018-05-24T00:15:04.000Z,32
2018-05-24T00:16:04.000Z,32
2018-05-24T00:18:04.000Z,32
2018-05-24T00:19:04.000Z,33
2018-05-24T00:20:04.000Z,32
2018-05-24T00:21:04.000Z,33
2018-05-24T00:22:04.000Z,32
2018-05-24T00:23:04.000Z,33
2018-05-24T00:24:04.000Z,32
2018-05-24T00:25:04.000Z,32
2018-05-24T00:26:04.000Z,32
2018-05-24T00:27:04.000Z,32
2018-05-24T00:28:04.000Z,32
2018-05-24T00:29:04.000Z,32
2018-05-24T00:30:04.000Z,32
2018-05-24T00:32:04.000Z,32
2018-05-24T00:33:04.000Z,32
2018-05-24T00:34:04.000Z,32
2018-05-24T00:35:04.000Z,32
2018-05-24T00:36:04.000Z,32
2018-05-24T00:37:04.000Z,32
2018-05-24T00:38:04.000Z,32
2018-05-24T00:39:04.000Z,32
2018-05-24T00:40:05.000Z,32
2018-05-24T00:42:05.000Z,32
2018-05-24T00:43:05.000Z,32
2018-05-24T00:44:05.000Z,32
2018-05-24T00:45:05.000Z,32
2018-05-24T00:46:05.000Z,32
2018-05-24T00:47:05.000Z,32
2018-05-24T00:48:05.000Z,32
2018-05-24T00:49:05.000Z,32
2018-05-24T00:50:05.000Z,32
2018-05-24T00:51:05.000Z,32
2018-05-24T00:52:05.000Z,32
2018-05-24T00:53:05.000Z,32
2018-05-24T00:54:05.000Z,32
2018-05-24T00:55:05.000Z,32
2018-05-24T00:56:05.000Z,32
2018-05-24T00:57:05.000Z,32
2018-05-24T00:58:05.000Z,32
2018-05-24T00:59:05.000Z,32
2018-05-24T01:00:05.000Z,32
2018-05-24T01:01:05.000Z,32
2018-05-24T01:02:05.000Z,32
2018-05-24T01:03:05.000Z,32
2018-05-24T01:04:05.000Z,32
2018-05-24T01:05:05.000Z,32
2018-05-24T01:06:05.000Z,32
2018-05-24T01:07:05.000Z,32
2018-05-24T01:08:05.000Z,32
2018-05-24T01:09:05.000Z,32
2018-05-24T01:10:05.000Z,32
2018-05-24T01:11:05.000Z,32
2018-05-24T01:12:05.000Z,32
2018-05-24T01:13:05.000Z,32
2018-05-24T01:14:05.000Z,32
2018-05-24T01:15:05.000Z,32
2018-05-24T01:16:05.000Z,32
2018-05-24T01:17:05.000Z,32
2018-05-24T01:18:05.000Z,32
2018-05-24T01:19:05.000Z,32
2018-05-24T01:20:05.000Z,32
2018-05-24T01:21:05.000Z,32
2018-05-24T01:22:05.000Z,32
2018-05-24T01:23:05.000Z,32
2018-05-24T01:25:05.000Z,32
2018-05-24T01:26:05.000Z,32
2018-05-24T01:28:05.000Z,32
2018-05-24T01:29:05.000Z,32
2018-05-24T01:30:05.000Z,32
2018-05-24T01:31:05.000Z,32
2018-05-24T01:32:05.000Z,32
2018-05-24T01:33:05.000Z,32
2018-05-24T01:34:05.000Z,32
2018-05-24T01:35:05.000Z,32
2018-05-24T01:37:05.000Z,32
2018-05-24T01:38:05.000Z,32
2018-05-24T01:39:05.000Z,32
2018-05-24T01:41:05.000Z,32
2018-05-24T01:42:05.000Z,32
2018-05-24T01:43:05.000Z,32
2018-05-24T01:44:05.000Z,32
2018-05-24T01:45:05.000Z,33
2018-05-24T01:46:05.000Z,32
2018-05-24T01:47:05.000Z,32
2018-05-24T01:48:05.000Z,32
2018-05-24T01:49:05.000Z,32
2018-05-24T01:50:05.000Z,32
2018-05-24T01:51:05.000Z,32
2018-05-24T01:53:05.000Z,32
2018-05-24T01:54:05.000Z,32
2018-05-24T01:55:05.000Z,32
2018-05-24T01:56:05.000Z,32
2018-05-24T01:57:05.000Z,32
2018-05-24T01:58:05.000Z,32
2018-05-24T02:00:05.000Z,32
2018-05-24T02:02:05.000Z,32
2018-05-24T02:03:05.000Z,32
2018-05-24T02:04:05.000Z,32
2018-05-24T02:05:05.000Z,32
2018-05-24T02:06:05.000Z,32
2018-05-24T02:07:05.000Z,32
2018-05-24T02:09:05.000Z,32
2018-05-24T02:10:05.000Z,32
2018-05-24T02:11:05.000Z,32
2018-05-24T02:12:05.000Z,32
2018-05-24T02:13:05.000Z,32
2018-05-24T02:14:05.000Z,32
2018-05-24T02:15:05.000Z,32
2018-05-24T02:16:05.000Z,32
2018-05-24T02:18:05.000Z,32
2018-05-24T02:19:05.000Z,32
2018-05-24T02:20:05.000Z,32
2018-05-24T02:21:05.000Z,32
2018-05-24T02:22:05.000Z,32
2018-05-24T02:23:05.000Z,32
2018-05-24T02:24:05.000Z,32
2018-05-24T02:25:05.000Z,32
2018-05-24T02:26:05.000Z,32
2018-05-24T02:27:05.000Z,32
2018-05-24T02:28:05.000Z,32
2018-05-24T02:29:05.000Z,32
2018-05-24T02:30:05.000Z,32
2018-05-24T02:31:05.000Z,32
2018-05-24T02:32:05.000Z,32
2018-05-24T02:33:05.000Z,32
2018-05-24T02:34:05.000Z,32
2018-05-24T02:35:05.000Z,32
2018-05-24T02:36:05.000Z,32
2018-05-24T02:37:05.000Z,32
2018-05-24T02:38:05.000Z,32
2018-05-24T02:39:05.000Z,32
2018-05-24T02:40:05.000Z,32
2018-05-24T02:41:05.000Z,32
2018-05-24T02:42:05.000Z,32
2018-05-24T02:43:05.000Z,32
2018-05-24T02:45:05.000Z,32
2018-05-24T02:46:05.000Z,32
2018-05-24T02:47:05.000Z,32
2018-05-24T02:48:05.000Z,32
2018-05-24T02:50:05.000Z,32
2018-05-24T02:51:05.000Z,32
2018-05-24T02:52:05.000Z,32
2018-05-24T02:53:05.000Z,32
2018-05-24T02:54:05.000Z,32
2018-05-24T02:55:05.000Z,32
2018-05-24T02:56:05.000Z,32
2018-05-24T02:57:05.000Z,32
2018-05-24T02:58:05.000Z,32
2018-05-24T02:59:05.000Z,32
2018-05-24T03:00:05.000Z,32
2018-05-24T03:01:05.000Z,32
2018-05-24T03:03:05.000Z,32
2018-05-24T03:04:05.000Z,32
2018-05-24T03:06:05.000Z,32
2018-05-24T03:07:05.000Z,32
2018-05-24T03:08:05.000Z,32
2018-05-24T03:09:05.000Z,32
2018-05-24T03:10:05.000Z,32
2018-05-24T03:11:05.000Z,32
2018-05-24T03:12:05.000Z,32
2018-05-24T03:13:05.000Z,32
2018-05-24T03:14:05.000Z,32
2018-05-24T03:15:05.000Z,32
2018-05-24T03:16:05.000Z,32
2018-05-24T03:18:05.000Z,32
2018-05-24T03:19:05.000Z,32
2018-05-24T03:20:05.000Z,32
2018-05-24T03:21:05.000Z,32
2018-05-24T03:22:05.000Z,32
2018-05-24T03:23:05.000Z,32
2018-05-24T03:24:05.000Z,32
2018-05-24T03:25:05.000Z,32
2018-05-24T03:26:05.000Z,32
2018-05-24T03:28:05.000Z,32
2018-05-24T03:29:05.000Z,32
2018-05-24T03:30:05.000Z,32
2018-05-24T03:32:05.000Z,32
2018-05-24T03:33:05.000Z,32
2018-05-24T03:34:05.000Z,32
2018-05-24T03:36:05.000Z,32
2018-05-24T03:37:05.000Z,32
2018-05-24T03:38:05.000Z,32
2018-05-24T03:39:05.000Z,32
2018-05-24T03:41:05.000Z,32
2018-05-24T03:42:05.000Z,32
2018-05-24T03:43:05.000Z,32
2018-05-24T03:45:05.000Z,32
2018-05-24T03:46:05.000Z,32
2018-05-24T03:47:05.000Z,32
2018-05-24T03:48:05.000Z,32
2018-05-24T03:49:05.000Z,32
2018-05-24T03:50:05.000Z,32
2018-05-24T03:51:04.000Z,32
2018-05-24T03:52:04.000Z,32
2018-05-24T03:53:04.000Z,32
2018-05-24T03:54:04.000Z,32
2018-05-24T03:56:04.000Z,32
2018-05-24T03:57:04.000Z,32
2018-05-24T03:58:04.000Z,32
2018-05-24T03:59:04.000Z,32
2018-05-24T04:00:04.000Z,32
2018-05-24T04:01:04.000Z,32
2018-05-24T04:03:04.000Z,33
2018-05-24T04:04:04.000Z,33
2018-05-24T04:05:04.000Z,34
2018-05-24T04:06:04.000Z,34
2018-05-24T04:07:04.000Z,34
2018-05-24T04:08:04.000Z,34
2018-05-24T04:09:04.000Z,34
2018-05-24T04:10:04.000Z,35
2018-05-24T04:11:04.000Z,35
2018-05-24T04:12:04.000Z,35
2018-05-24T04:13:04.000Z,35
2018-05-24T04:14:04.000Z,35
2018-05-24T04:15:04.000Z,35
2018-05-24T04:16:04.000Z,35
2018-05-24T04:17:04.000Z,35
2018-05-24T04:18:04.000Z,35
2018-05-24T04:19:04.000Z,35
2018-05-24T04:20:04.000Z,35
2018-05-24T04:21:04.000Z,35
2018-05-24T04:22:04.000Z,35
2018-05-24T04:23:04.000Z,35
2018-05-24T04:25:04.000Z,35
2018-05-24T04:27:04.000Z,35
2018-05-24T04:28:04.000Z,35
2018-05-24T04:29:04.000Z,36
2018-05-24T04:30:04.000Z,36
2018-05-24T04:31:04.000Z,36
2018-05-24T04:32:04.000Z,36
2018-05-24T04:33:04.000Z,36
2018-05-24T04:34:04.000Z,36
2018-05-24T04:35:04.000Z,36
2018-05-24T04:36:04.000Z,36
2018-05-24T04:37:04.000Z,36
2018-05-24T04:39:04.000Z,36
2018-05-24T04:40:04.000Z,36
2018-05-24T04:42:04.000Z,36
2018-05-24T04:43:04.000Z,37
2018-05-24T04:44:04.000Z,37
2018-05-24T04:45:04.000Z,37
2018-05-24T04:46:04.000Z,37
2018-05-24T04:47:04.000Z,37
2018-05-24T04:48:04.000Z,37
2018-05-24T04:49:04.000Z,37
2018-05-24T04:50:04.000Z,37
2018-05-24T04:51:04.000Z,37
2018-05-24T04:52:04.000Z,37
2018-05-24T04:53:04.000Z,37
2018-05-24T04:54:04.000Z,37
2018-05-24T04:55:05.000Z,37
2018-05-24T04:56:05.000Z,37
2018-05-24T04:57:05.000Z,37
2018-05-24T04:58:05.000Z,37
2018-05-24T04:59:05.000Z,37
2018-05-24T05:01:05.000Z,37
2018-05-24T05:02:05.000Z,38
2018-05-24T05:03:05.000Z,38
2018-05-24T05:04:05.000Z,38
2018-05-24T05:05:05.000Z,38
2018-05-24T05:06:05.000Z,38
2018-05-24T05:07:05.000Z,38
2018-05-24T05:08:05.000Z,38
2018-05-24T05:10:05.000Z,37
2018-05-24T05:11:05.000Z,38
2018-05-24T05:12:05.000Z,38
2018-05-24T05:13:05.000Z,38
2018-05-24T05:14:05.000Z,38
2018-05-24T05:15:05.000Z,38
2018-05-24T05:18:23.000Z,38
2018-05-24T05:19:23.000Z,38
2018-05-24T05:20:23.000Z,38
2018-05-24T05:21:23.000Z,38
2018-05-24T05:22:23.000Z,38
2018-05-24T05:24:23.000Z,38
2018-05-24T05:25:23.000Z,38
2018-05-24T05:26:23.000Z,38
2018-05-24T05:27:23.000Z,38
2018-05-24T05:28:23.000Z,38
2018-05-24T05:29:23.000Z,38
2018-05-24T05:31:23.000Z,38
2018-05-24T05:33:23.000Z,38
2018-05-24T05:34:23.000Z,39
2018-05-24T05:36:23.000Z,39
2018-05-24T05:37:23.000Z,39
2018-05-24T05:38:23.000Z,39
2018-05-24T05:39:23.000Z,39
2018-05-24T05:40:23.000Z,39
2018-05-24T05:41:23.000Z,39
2018-05-24T05:43:23.000Z,39
2018-05-24T05:45:23.000Z,39
2018-05-24T05:46:23.000Z,39
2018-05-24T05:47:23.000Z,39
2018-05-24T05:48:23.000Z,39
2018-05-24T05:49:23.000Z,39
2018-05-24T05:50:23.000Z,39
2018-05-24T05:51:23.000Z,39
2018-05-24T05:52:23.000Z,39
2018-05-24T05:53:23.000Z,39
2018-05-24T05:54:23.000Z,39
2018-05-24T05:55:23.000Z,39
2018-05-24T05:56:23.000Z,39
2018-05-24T05:58:23.000Z,39
2018-05-24T05:59:23.000Z,39
2018-05-24T06:00:23.000Z,39
2018-05-24T06:01:23.000Z,39
2018-05-24T06:03:23.000Z,39
2018-05-24T06:04:23.000Z,39
2018-05-24T06:05:23.000Z,39
2018-05-24T06:06:23.000Z,39
2018-05-24T06:07:23.000Z,39
2018-05-24T06:08:23.000Z,39
2018-05-24T06:09:23.000Z,39
2018-05-24T06:10:23.000Z,39
2018-05-24T06:11:23.000Z,39
2018-05-24T06:12:23.000Z,39
2018-05-24T06:13:23.000Z,38
2018-05-24T06:14:23.000Z,38
2018-05-24T06:15:23.000Z,38
2018-05-24T06:16:23.000Z,38
2018-05-24T06:17:23.000Z,38
2018-05-24T06:18:23.000Z,38
2018-05-24T06:19:23.000Z,38
2018-05-24T06:20:23.000Z,38
2018-05-24T06:22:23.000Z,37
2018-05-24T06:23:23.000Z,38
2018-05-24T06:24:23.000Z,38
2018-05-24T06:25:23.000Z,37
2018-05-24T06:27:23.000Z,37
2018-05-24T06:28:23.000Z,37
2018-05-24T06:29:23.000Z,37
2018-05-24T06:30:23.000Z,37
2018-05-24T06:31:23.000Z,37
2018-05-24T06:32:23.000Z,37
2018-05-24T06:33:23.000Z,37
2018-05-24T06:34:23.000Z,37
2018-05-24T06:35:23.000Z,37
2018-05-24T06:36:23.000Z,37
2018-05-24T06:37:23.000Z,37
2018-05-24T06:38:23.000Z,36
2018-05-24T06:39:23.000Z,36
2018-05-24T06:41:23.000Z,36
2018-05-24T06:42:23.000Z,36
2018-05-24T06:43:23.000Z,36
2018-05-24T06:44:23.000Z,36
2018-05-24T06:45:23.000Z,36
2018-05-24T06:46:23.000Z,37
2018-05-24T06:47:23.000Z,36
2018-05-24T06:48:23.000Z,36
2018-05-24T06:49:23.000Z,36
2018-05-24T06:50:23.000Z,36
2018-05-24T06:52:23.000Z,36
2018-05-24T06:53:23.000Z,36
2018-05-24T06:54:23.000Z,36
2018-05-24T06:55:23.000Z,36
2018-05-24T06:56:23.000Z,36
2018-05-24T06:57:23.000Z,37
2018-05-24T06:58:23.000Z,37
2018-05-24T07:00:23.000Z,37
2018-05-24T07:01:23.000Z,37
2018-05-24T07:02:23.000Z,37
2018-05-24T07:04:23.000Z,37
2018-05-24T07:05:23.000Z,37
2018-05-24T07:06:23.000Z,37
2018-05-24T07:07:23.000Z,37
2018-05-24T07:08:23.000Z,37
2018-05-24T07:09:23.000Z,37
2018-05-24T07:10:23.000Z,37
2018-05-24T07:11:23.000Z,37
2018-05-24T07:13:23.000Z,37
2018-05-24T07:14:23.000Z,37
2018-05-24T07:15:23.000Z,37
2018-05-24T07:16:23.000Z,37
2018-05-24T07:17:23.000Z,37
2018-05-24T07:18:23.000Z,37
2018-05-24T07:19:23.000Z,37
2018-05-24T07:20:23.000Z,37
2018-05-24T07:21:23.000Z,37
2018-05-24T07:22:23.000Z,37
2018-05-24T07:23:23.000Z,37
2018-05-24T07:24:23.000Z,37
2018-05-24T07:25:23.000Z,37
2018-05-24T07:26:23.000Z,37
2018-05-24T07:27:23.000Z,37
2018-05-24T07:28:23.000Z,37
2018-05-24T07:30:23.000Z,37
2018-05-24T07:31:23.000Z,37
2018-05-24T07:32:23.000Z,37
2018-05-24T07:33:23.000Z,37
2018-05-24T07:35:23.000Z,37
2018-05-24T07:37:23.000Z,37
2018-05-24T07:38:23.000Z,37
2018-05-24T07:39:23.000Z,37
2018-05-24T07:40:23.000Z,37
2018-05-24T07:41:23.000Z,37
2018-05-24T07:42:23.000Z,36
2018-05-24T07:43:23.000Z,36
2018-05-24T07:44:23.000Z,36
2018-05-24T07:45:23.000Z,36
2018-05-24T07:46:23.000Z,36
2018-05-24T07:47:23.000Z,36
2018-05-24T07:48:23.000Z,36
2018-05-24T07:49:23.000Z,36
2018-05-24T07:50:23.000Z,36
2018-05-24T07:51:23.000Z,36
2018-05-24T07:52:23.000Z,36
2018-05-24T07:53:23.000Z,36
2018-05-24T07:54:23.000Z,36
2018-05-24T07:55:23.000Z,36
2018-05-24T07:56:23.000Z,36
2018-05-24T07:58:23.000Z,36
2018-05-24T07:59:23.000Z,36
2018-05-24T08:00:23.000Z,36
2018-05-24T08:01:23.000Z,36
2018-05-24T08:02:23.000Z,36
2018-05-24T08:04:23.000Z,36
2018-05-24T08:05:23.000Z,36
2018-05-24T08:07:23.000Z,36
2018-05-24T08:08:23.000Z,36
2018-05-24T08:09:23.000Z,36
2018-05-24T08:10:23.000Z,36
2018-05-24T08:11:23.000Z,36
2018-05-24T08:12:23.000Z,36
2018-05-24T08:13:23.000Z,36
2018-05-24T08:14:23.000Z,36
2018-05-24T08:15:23.000Z,36
2018-05-24T08:16:23.000Z,36
2018-05-24T08:17:23.000Z,36
2018-05-24T08:18:23.000Z,35
2018-05-24T08:19:23.000Z,36
2018-05-24T08:20:23.000Z,35
2018-05-24T08:21:23.000Z,35
2018-05-24T08:22:23.000Z,36
2018-05-24T08:23:23.000Z,35
2018-05-24T08:24:23.000Z,35
2018-05-24T08:25:23.000Z,35
2018-05-24T08:27:23.000Z,35
2018-05-24T08:28:23.000Z,35
2018-05-24T08:29:23.000Z,35
2018-05-24T08:30:23.000Z,35
2018-05-24T08:31:23.000Z,35
2018-05-24T08:32:23.000Z,35
2018-05-24T08:33:23.000Z,35
2018-05-24T08:34:23.000Z,35
2018-05-24T08:35:23.000Z,35
2018-05-24T08:36:23.000Z,35
2018-05-24T08:38:23.000Z,35
2018-05-24T08:39:23.000Z,35
2018-05-24T08:40:23.000Z,35
2018-05-24T08:41:23.000Z,34
2018-05-24T08:42:23.000Z,35
2018-05-24T08:43:23.000Z,34
2018-05-24T08:44:23.000Z,35
2018-05-24T08:45:23.000Z,34
2018-05-24T08:47:23.000Z,34
2018-05-24T08:49:23.000Z,34
2018-05-24T08:51:23.000Z,34
2018-05-24T08:53:23.000Z,34
2018-05-24T08:54:23.000Z,35
2018-05-24T08:55:23.000Z,35
2018-05-24T08:56:23.000Z,35
2018-05-24T08:57:23.000Z,35
2018-05-24T08:59:23.000Z,35
2018-05-24T09:00:23.000Z,35
2018-05-24T09:01:23.000Z,35
2018-05-24T09:02:23.000Z,35
2018-05-24T09:03:23.000Z,35
2018-05-24T09:04:23.000Z,35
2018-05-24T09:05:23.000Z,35
2018-05-24T09:06:23.000Z,35
2018-05-24T09:07:23.000Z,35
2018-05-24T09:09:23.000Z,35
2018-05-24T09:10:23.000Z,35
2018-05-24T09:11:23.000Z,35
2018-05-24T09:12:23.000Z,35
2018-05-24T09:13:23.000Z,35
2018-05-24T09:14:23.000Z,35
2018-05-24T09:15:23.000Z,35
2018-05-24T09:16:23.000Z,35
2018-05-24T09:17:23.000Z,36
2018-05-24T09:18:23.000Z,36
2018-05-24T09:19:23.000Z,35
2018-05-24T09:20:23.000Z,35
2018-05-24T09:21:23.000Z,36
2018-05-24T09:22:23.000Z,35
2018-05-24T09:23:23.000Z,35
2018-05-24T09:24:23.000Z,35
2018-05-24T09:25:23.000Z,36
2018-05-24T09:26:23.000Z,36
2018-05-24T09:27:23.000Z,36
2018-05-24T09:28:23.000Z,36
2018-05-24T09:29:23.000Z,36
2018-05-24T09:30:23.000Z,36
2018-05-24T09:32:23.000Z,36
2018-05-24T09:33:23.000Z,36
2018-05-24T09:34:23.000Z,36
2018-05-24T09:35:23.000Z,36
2018-05-24T09:36:23.000Z,36
2018-05-24T09:37:23.000Z,36
2018-05-24T09:38:23.000Z,36
2018-05-24T09:39:23.000Z,36
2018-05-24T09:40:23.000Z,36
2018-05-24T09:41:23.000Z,36
2018-05-24T09:42:23.000Z,36
2018-05-24T09:43:23.000Z,36
2018-05-24T09:44:23.000Z,36
2018-05-24T09:45:23.000Z,36
2018-05-24T09:46:23.000Z,36
2018-05-24T09:47:23.000Z,36
2018-05-24T09:48:23.000Z,36
2018-05-24T09:49:23.000Z,36
2018-05-24T09:50:23.000Z,36
2018-05-24T09:51:23.000Z,36
2018-05-24T09:52:23.000Z,36
2018-05-24T09:53:23.000Z,36
2018-05-24T09:54:23.000Z,36
2018-05-24T09:55:23.000Z,36
2018-05-24T09:56:23.000Z,36
2018-05-24T09:57:23.000Z,36
2018-05-24T09:58:23.000Z,36
2018-05-24T09:59:23.000Z,36
2018-05-24T10:00:23.000Z,36
2018-05-24T10:01:23.000Z,36
2018-05-24T10:02:23.000Z,36
2018-05-24T10:03:23.000Z,36
2018-05-24T10:05:23.000Z,36
2018-05-24T10:06:23.000Z,36
2018-05-24T10:07:23.000Z,36
2018-05-24T10:08:23.000Z,36
2018-05-24T10:09:23.000Z,36
2018-05-24T10:10:23.000Z,36
2018-05-24T10:12:23.000Z,36
2018-05-24T10:13:23.000Z,36
2018-05-24T10:14:23.000Z,36
2018-05-24T10:15:23.000Z,36
2018-05-24T10:16:23.000Z,37
2018-05-24T10:17:23.000Z,37
2018-05-24T10:18:23.000Z,36
2018-05-24T10:19:23.000Z,36
2018-05-24T10:20:23.000Z,36
2018-05-24T10:21:23.000Z,36
2018-05-24T10:25:08.000Z,36
2018-05-24T10:28:54.000Z,37
2018-05-24T10:29:54.000Z,37
2018-05-24T10:30:54.000Z,37
2018-05-24T10:31:54.000Z,37
2018-05-24T10:32:54.000Z,37
2018-05-24T10:33:54.000Z,37
2018-05-24T10:34:54.000Z,37
2018-05-24T10:35:54.000Z,37
2018-05-24T10:37:54.000Z,36
2018-05-24T10:38:54.000Z,36
2018-05-24T10:39:54.000Z,36
2018-05-24T10:40:54.000Z,36
2018-05-24T10:41:54.000Z,36
2018-05-24T10:42:54.000Z,36
2018-05-24T10:43:54.000Z,36
2018-05-24T10:44:54.000Z,36
2018-05-24T10:45:54.000Z,36
2018-05-24T10:46:54.000Z,36
2018-05-24T10:47:54.000Z,36
2018-05-24T10:49:54.000Z,36
2018-05-24T10:50:54.000Z,36
2018-05-24T10:51:54.000Z,36
2018-05-24T10:52:54.000Z,36
2018-05-24T10:53:54.000Z,36
2018-05-24T10:54:54.000Z,36
2018-05-24T10:55:54.000Z,36
2018-05-24T10:56:54.000Z,36
2018-05-24T10:57:54.000Z,36
2018-05-24T10:58:54.000Z,36
2018-05-24T10:59:54.000Z,36
2018-05-24T11:01:54.000Z,36
2018-05-24T11:02:54.000Z,36
2018-05-24T11:03:54.000Z,36
2018-05-24T11:04:54.000Z,36
2018-05-24T11:05:54.000Z,36
2018-05-24T11:06:54.000Z,36
2018-05-24T11:07:54.000Z,36
2018-05-24T11:08:54.000Z,35
2018-05-24T11:09:54.000Z,36
2018-05-24T11:10:54.000Z,36
2018-05-24T11:11:54.000Z,35
2018-05-24T11:12:54.000Z,35
2018-05-24T11:13:54.000Z,34
2018-05-24T11:14:54.000Z,33
2018-05-24T11:15:54.000Z,32
2018-05-24T11:16:54.000Z,32
2018-05-24T11:18:54.000Z,30
2018-05-24T11:19:54.000Z,30
2018-05-24T11:20:54.000Z,30
2018-05-24T11:21:54.000Z,30
2018-05-24T11:22:54.000Z,30
2018-05-24T11:23:54.000Z,31
2018-05-24T11:24:54.000Z,31
2018-05-24T11:25:54.000Z,31
2018-05-24T11:26:54.000Z,32
2018-05-24T11:28:54.000Z,32
2018-05-24T11:29:54.000Z,32
2018-05-24T11:30:54.000Z,32
2018-05-24T11:31:54.000Z,33
2018-05-24T11:32:54.000Z,33
2018-05-24T11:33:54.000Z,33
2018-05-24T11:34:54.000Z,33
2018-05-24T11:35:54.000Z,33
2018-05-24T11:37:54.000Z,33
2018-05-24T11:38:54.000Z,33
2018-05-24T11:39:54.000Z,33
2018-05-24T11:40:54.000Z,34
2018-05-24T11:41:54.000Z,34
2018-05-24T11:42:54.000Z,34
2018-05-24T11:43:54.000Z,34
2018-05-24T11:44:54.000Z,34
2018-05-24T11:45:54.000Z,34
2018-05-24T11:46:54.000Z,34
2018-05-24T11:47:54.000Z,34
2018-05-24T11:48:54.000Z,34
2018-05-24T11:49:54.000Z,34
2018-05-24T11:50:54.000Z,34
2018-05-24T11:51:54.000Z,34
2018-05-24T11:52:54.000Z,34
2018-05-24T11:53:54.000Z,34
2018-05-24T11:54:54.000Z,34
2018-05-24T11:56:54.000Z,34
2018-05-24T11:57:54.000Z,33
2018-05-24T11:58:54.000Z,33
2018-05-24T11:59:54.000Z,33
2018-05-24T12:00:54.000Z,33
2018-05-24T12:01:54.000Z,33
2018-05-24T12:02:54.000Z,33
2018-05-24T12:03:54.000Z,33
2018-05-24T12:04:54.000Z,32
2018-05-24T12:05:54.000Z,32
2018-05-24T12:06:54.000Z,32
2018-05-24T12:07:54.000Z,32
2018-05-24T12:08:54.000Z,32
2018-05-24T12:09:54.000Z,32
2018-05-24T12:10:54.000Z,32
2018-05-24T12:11:54.000Z,32
2018-05-24T12:12:54.000Z,32
2018-05-24T12:13:54.000Z,32
2018-05-24T12:14:54.000Z,32
2018-05-24T12:15:54.000Z,31
2018-05-24T12:16:54.000Z,32
2018-05-24T12:17:54.000Z,32
2018-05-24T12:18:54.000Z,32
2018-05-24T12:19:55.000Z,32
2018-05-24T12:20:55.000Z,32
2018-05-24T12:21:55.000Z,32
2018-05-24T12:22:55.000Z,32
2018-05-24T12:23:55.000Z,32
2018-05-24T12:24:55.000Z,32
2018-05-24T12:25:55.000Z,32
2018-05-24T12:26:55.000Z,33
2018-05-24T12:27:55.000Z,33
2018-05-24T12:28:55.000Z,33
2018-05-24T12:29:55.000Z,33
2018-05-24T12:31:55.000Z,33
2018-05-24T12:32:55.000Z,33
2018-05-24T12:33:55.000Z,33
2018-05-24T12:34:55.000Z,33
2018-05-24T12:47:40.000Z,36
2018-05-24T12:48:40.000Z,36
2018-05-24T12:49:40.000Z,36
2018-05-24T12:50:40.000Z,36
2018-05-24T12:51:40.000Z,36
2018-05-24T12:52:40.000Z,36
2018-05-24T12:53:40.000Z,36
2018-05-24T12:55:40.000Z,36
2018-05-24T12:56:40.000Z,36
2018-05-24T12:57:40.000Z,36
2018-05-24T12:58:40.000Z,36
2018-05-24T12:59:40.000Z,36
2018-05-24T13:00:40.000Z,36
2018-05-24T13:01:40.000Z,36
2018-05-24T13:02:40.000Z,36
2018-05-24T13:03:40.000Z,36
2018-05-24T13:04:40.000Z,36
2018-05-24T13:05:40.000Z,36
2018-05-24T13:07:40.000Z,35
2018-05-24T13:08:40.000Z,35
2018-05-24T13:09:40.000Z,35
2018-05-24T13:10:40.000Z,35
2018-05-24T13:11:40.000Z,35
2018-05-24T13:12:40.000Z,35
2018-05-24T13:13:40.000Z,35
2018-05-24T13:14:40.000Z,35
2018-05-24T13:15:40.000Z,35
2018-05-24T13:16:40.000Z,35
2018-05-24T13:17:40.000Z,34
2018-05-24T13:18:40.000Z,34
2018-05-24T13:19:40.000Z,34
2018-05-24T13:20:40.000Z,34
2018-05-24T13:21:40.000Z,34
2018-05-24T13:22:39.000Z,34
2018-05-24T13:23:39.000Z,34
2018-05-24T13:24:39.000Z,34
2018-05-24T13:25:39.000Z,34
2018-05-24T13:26:39.000Z,34
2018-05-24T13:27:39.000Z,35
2018-05-24T13:28:39.000Z,35
2018-05-24T13:29:39.000Z,35
2018-05-24T13:30:39.000Z,35
2018-05-24T13:31:39.000Z,35
2018-05-24T13:32:39.000Z,35
2018-05-24T13:33:39.000Z,35
2018-05-24T13:34:39.000Z,35
2018-05-24T13:35:39.000Z,35
2018-05-24T13:36:39.000Z,35
2018-05-24T13:37:39.000Z,35
2018-05-24T13:39:39.000Z,35
2018-05-24T13:40:39.000Z,35
2018-05-24T13:41:39.000Z,35
2018-05-24T13:43:39.000Z,35
2018-05-24T13:44:39.000Z,35
2018-05-24T13:45:39.000Z,35
2018-05-24T13:46:39.000Z,35
2018-05-24T13:47:39.000Z,35
2018-05-24T13:48:39.000Z,35
2018-05-24T13:49:39.000Z,35
2018-05-24T13:51:39.000Z,35
2018-05-24T13:52:39.000Z,35
2018-05-24T13:53:39.000Z,35
2018-05-24T13:54:39.000Z,35
2018-05-24T13:55:39.000Z,35
2018-05-24T13:57:39.000Z,35
2018-05-24T13:58:39.000Z,35
2018-05-24T13:59:39.000Z,35
2018-05-24T14:00:39.000Z,35
2018-05-24T14:01:39.000Z,35
2018-05-24T14:02:39.000Z,35
2018-05-24T14:03:39.000Z,35
2018-05-24T14:05:39.000Z,35
2018-05-24T14:07:39.000Z,35
2018-05-24T14:08:39.000Z,36
2018-05-24T14:09:39.000Z,35
2018-05-24T14:10:39.000Z,36
2018-05-24T14:12:39.000Z,36
2018-05-24T14:13:39.000Z,36
2018-05-24T14:14:39.000Z,36
2018-05-24T14:15:39.000Z,36
2018-05-24T14:16:39.000Z,36
2018-05-24T14:17:39.000Z,36
2018-05-24T14:18:39.000Z,36
2018-05-24T14:19:39.000Z,36
2018-05-24T14:21:39.000Z,36
2018-05-24T14:22:39.000Z,36
2018-05-24T14:23:39.000Z,36
2018-05-24T14:24:39.000Z,36
2018-05-24T14:25:39.000Z,36
2018-05-24T14:26:40.000Z,37
2018-05-24T14:27:40.000Z,36
2018-05-24T14:28:40.000Z,36
2018-05-24T14:29:40.000Z,36
2018-05-24T14:30:40.000Z,36
2018-05-24T14:31:40.000Z,36
2018-05-24T14:32:40.000Z,36
2018-05-24T14:33:40.000Z,36
2018-05-24T14:35:40.000Z,36
2018-05-24T14:37:40.000Z,36
2018-05-24T14:38:40.000Z,36
2018-05-24T14:39:40.000Z,36
2018-05-24T14:40:40.000Z,36
2018-05-24T14:41:40.000Z,36
2018-05-24T14:42:40.000Z,37
2018-05-24T14:43:40.000Z,37
2018-05-24T14:44:40.000Z,36
2018-05-24T14:45:40.000Z,37
2018-05-24T14:46:40.000Z,37
2018-05-24T14:47:40.000Z,37
2018-05-24T14:48:40.000Z,37
2018-05-24T14:49:40.000Z,37
2018-05-24T14:50:40.000Z,37
2018-05-24T14:51:40.000Z,37
2018-05-24T14:52:40.000Z,37
2018-05-24T14:53:40.000Z,37
2018-05-24T14:54:40.000Z,37
2018-05-24T14:56:40.000Z,37
2018-05-24T14:57:40.000Z,37
2018-05-24T14:58:40.000Z,37
2018-05-24T14:59:40.000Z,37
2018-05-24T15:00:40.000Z,37
2018-05-24T15:02:40.000Z,37
2018-05-24T15:03:40.000Z,37
2018-05-24T15:04:40.000Z,37
2018-05-24T15:05:40.000Z,37
2018-05-24T15:06:40.000Z,37
2018-05-24T15:07:40.000Z,38
2018-05-24T15:08:40.000Z,38
2018-05-24T15:09:40.000Z,37
2018-05-24T15:10:40.000Z,38
2018-05-24T15:11:40.000Z,38
2018-05-24T15:13:40.000Z,37
2018-05-24T15:14:40.000Z,38
2018-05-24T15:15:40.000Z,38
2018-05-24T15:16:40.000Z,38
2018-05-24T15:17:40.000Z,38
2018-05-24T15:18:40.000Z,38
2018-05-24T15:19:40.000Z,38
2018-05-24T15:20:40.000Z,38
2018-05-24T15:21:40.000Z,38
2018-05-24T15:22:40.000Z,38
2018-05-24T15:24:40.000Z,38
2018-05-24T15:25:40.000Z,38
2018-05-24T15:27:40.000Z,38
2018-05-24T15:28:40.000Z,39
2018-05-24T15:29:40.000Z,39
2018-05-24T15:30:40.000Z,39
2018-05-24T15:31:40.000Z,39
2018-05-24T15:32:40.000Z,39
2018-05-24T15:33:40.000Z,39
2018-05-24T15:34:40.000Z,39
2018-05-24T15:35:40.000Z,39
2018-05-24T15:36:40.000Z,39
2018-05-24T15:37:40.000Z,39
2018-05-24T15:38:40.000Z,39
2018-05-24T15:39:40.000Z,39
2018-05-24T15:41:40.000Z,38
2018-05-24T15:42:40.000Z,39
2018-05-24T15:43:40.000Z,39
2018-05-24T15:44:40.000Z,39
2018-05-24T15:45:40.000Z,39
2018-05-24T15:46:40.000Z,39
2018-05-24T15:47:40.000Z,39
2018-05-24T15:48:40.000Z,39
2018-05-24T15:49:40.000Z,39
2018-05-24T15:50:40.000Z,39
2018-05-24T15:51:40.000Z,39
2018-05-24T15:52:40.000Z,39
2018-05-24T15:53:40.000Z,39
2018-05-24T15:54:40.000Z,39
2018-05-24T15:55:40.000Z,39
2018-05-24T15:56:40.000Z,39
2018-05-24T15:58:40.000Z,39
2018-05-24T15:59:40.000Z,39
2018-05-24T16:00:40.000Z,39
2018-05-24T16:01:40.000Z,39
2018-05-24T16:02:40.000Z,39
2018-05-24T16:03:40.000Z,39
2018-05-24T16:04:40.000Z,39
2018-05-24T16:06:40.000Z,39
2018-05-24T16:07:40.000Z,39
2018-05-24T16:08:40.000Z,39